Time;durP1;ratioP1;P1;durP2;ratioP2;P2;SDS_P1;SDS_P2;PMS_P1;PMS_P2;Temp;Humidity;BMP_temperature;BMP_pressure;BME280_temperature;BME280_humidity;BME280_pressure;Samples;Min_cycle;Max_cycle;Signal;HPM_P1;HPM_P2
2023/06/23 00:00:14;;;;;;;6.32;4.32;;;15.70;99.90;;;;;;5011145;28;20069;-72
2023/06/23 00:02:42;;;;;;;6.47;4.15;;;15.70;99.90;;;;;;5009091;28;20431;-73
2023/06/23 00:05:09;;;;;;;6.22;4.40;;;15.60;99.90;;;;;;5008512;28;20115;-72
2023/06/23 00:07:36;;;;;;;6.20;4.70;;;15.60;99.90;;;;;;5012203;28;20052;-74
2023/06/23 00:10:05;;;;;;;9.73;3.97;;;15.50;99.90;;;;;;5011942;28;20026;-72
2023/06/23 00:12:35;;;;;;;6.40;4.47;;;15.50;99.90;;;;;;5009448;28;20018;-72
2023/06/23 00:15:02;;;;;;;7.78;4.70;;;15.50;99.90;;;;;;5011913;28;20028;-73
2023/06/23 00:17:28;;;;;;;11.35;4.30;;;15.40;99.90;;;;;;5011525;28;20076;-73
2023/06/23 00:19:54;;;;;;;9.10;4.45;;;15.30;99.90;;;;;;5011093;28;20054;-73
2023/06/23 00:22:19;;;;;;;6.82;4.28;;;15.30;99.90;;;;;;5011634;28;20026;-72
2023/06/23 00:24:45;;;;;;;5.38;4.28;;;15.20;99.90;;;;;;5011247;28;20064;-72
2023/06/23 00:27:10;;;;;;;7.47;4.75;;;15.20;99.90;;;;;;5012434;28;20061;-73
2023/06/23 00:29:36;;;;;;;5.20;4.20;;;15.20;99.90;;;;;;5012389;28;20125;-74
2023/06/23 00:32:02;;;;;;;7.18;4.45;;;15.10;99.90;;;;;;5012087;28;20030;-74
2023/06/23 00:34:28;;;;;;;15.27;5.05;;;15.10;99.90;;;;;;5012523;28;20030;-74
2023/06/23 00:36:54;;;;;;;7.10;4.25;;;15.00;99.90;;;;;;5012186;28;20032;-74
2023/06/23 00:39:20;;;;;;;6.97;4.70;;;15.00;99.90;;;;;;5019585;28;20037;-74
2023/06/23 00:41:46;;;;;;;8.05;5.05;;;15.00;99.90;;;;;;5010368;28;20523;-72
2023/06/23 00:44:11;;;;;;;9.50;4.90;;;14.90;99.90;;;;;;5012124;28;20034;-74
2023/06/23 00:46:37;;;;;;;5.97;4.13;;;14.90;99.90;;;;;;5012260;28;20468;-74
2023/06/23 00:49:04;;;;;;;5.93;4.40;;;14.90;99.90;;;;;;5012357;28;20030;-74
2023/06/23 00:51:30;;;;;;;6.45;4.43;;;14.80;99.90;;;;;;5012312;28;20113;-74
2023/06/23 00:53:58;;;;;;;8.32;4.50;;;14.80;99.90;;;;;;5012151;28;20109;-74
2023/06/23 00:56:24;;;;;;;8.57;4.53;;;14.70;99.90;;;;;;5011982;28;20029;-74
2023/06/23 00:58:50;;;;;;;9.27;5.25;;;14.70;99.90;;;;;;5011963;28;20026;-74
2023/06/23 01:01:16;;;;;;;6.53;4.10;;;14.70;99.90;;;;;;5011911;28;20462;-74
2023/06/23 01:03:43;;;;;;;7.50;4.78;;;14.60;99.90;;;;;;5015080;28;20038;-74
2023/06/23 01:06:21;;;;;;;6.75;5.18;;;14.60;99.90;;;;;;5015928;28;20388;-73
2023/06/23 01:09:18;;;;;;;9.02;4.95;;;14.60;99.90;;;;;;5015829;28;20022;-73
2023/06/23 01:11:54;;;;;;;8.32;4.35;;;14.60;99.90;;;;;;5015823;28;20030;-73
2023/06/23 01:14:56;;;;;;;7.85;4.50;;;14.50;99.90;;;;;;5015579;28;20069;-74
2023/06/23 01:17:29;;;;;;;10.57;5.07;;;14.40;99.90;;;;;;5012860;28;20088;-73
2023/06/23 01:20:20;;;;;;;7.53;4.72;;;14.40;99.90;;;;;;5014473;28;20041;-75
2023/06/23 01:23:13;;;;;;;7.25;4.72;;;14.40;99.90;;;;;;5014442;28;20076;-74
2023/06/23 01:26:04;;;;;;;10.00;4.80;;;14.40;99.90;;;;;;5014357;28;20030;-72
2023/06/23 01:28:55;;;;;;;7.72;4.70;;;14.40;99.90;;;;;;5014562;28;20036;-74
2023/06/23 01:31:31;;;;;;;6.97;4.68;;;14.30;99.90;;;;;;5014466;28;20447;-74
2023/06/23 01:34:01;;;;;;;9.73;5.45;;;14.30;99.90;;;;;;5014597;28;20360;-75
2023/06/23 01:36:41;;;;;;;9.38;5.13;;;14.30;99.90;;;;;;5014010;28;20092;-74
2023/06/23 01:39:11;;;;;;;10.35;5.25;;;14.30;99.90;;;;;;5013977;28;20504;-74
2023/06/23 01:42:00;;;;;;;;;;;14.30;99.90;;;;;;5014593;28;20026;-74
2023/06/23 01:44:29;;;;;;;7.82;5.43;;;14.40;99.90;;;;;;5005489;28;19920;-74
2023/06/23 01:46:59;;;;;;;7.68;4.97;;;14.40;99.90;;;;;;5013769;28;20026;-74
2023/06/23 01:49:28;;;;;;;7.33;4.90;;;14.30;99.90;;;;;;5014205;28;20516;-74
2023/06/23 01:51:54;;;;;;;6.68;4.88;;;14.30;99.90;;;;;;5014867;28;20355;-75
2023/06/23 01:54:22;;;;;;;10.18;5.13;;;14.30;99.90;;;;;;4996802;28;20065;-74
2023/06/23 01:56:49;;;;;;;8.82;5.65;;;14.30;99.90;;;;;;5012731;28;20036;-75
2023/06/23 01:59:16;;;;;;;7.78;5.65;;;14.20;99.90;;;;;;5013625;28;20049;-74
2023/06/23 02:01:45;;;;;;;7.68;5.25;;;14.10;99.90;;;;;;5014340;28;20038;-74
2023/06/23 02:04:12;;;;;;;8.82;5.40;;;14.10;99.90;;;;;;5014179;28;20072;-74
2023/06/23 02:06:39;;;;;;;10.32;5.28;;;14.10;99.90;;;;;;5013982;28;20076;-74
2023/06/23 02:09:12;;;;;;;6.97;5.63;;;14.00;99.90;;;;;;5013932;28;20037;-74
2023/06/23 02:11:38;;;;;;;10.30;5.68;;;14.00;99.90;;;;;;5014190;28;20029;-73
2023/06/23 02:14:04;;;;;;;8.82;5.90;;;13.90;99.90;;;;;;5011842;28;20029;-73
2023/06/23 02:16:32;;;;;;;10.35;5.95;;;13.90;99.90;;;;;;5013588;28;20026;-73
2023/06/23 02:18:59;;;;;;;7.93;5.63;;;13.90;99.90;;;;;;5013630;28;20179;-73
2023/06/23 02:21:27;;;;;;;7.38;5.32;;;13.90;99.90;;;;;;5013383;28;20079;-72
2023/06/23 02:23:54;;;;;;;7.95;5.30;;;13.90;99.90;;;;;;5013824;28;20095;-73
2023/06/23 02:26:22;;;;;;;9.43;5.82;;;13.90;99.90;;;;;;5013301;28;20045;-74
2023/06/23 02:28:50;;;;;;;10.65;5.75;;;13.90;99.90;;;;;;5013340;28;20030;-74
2023/06/23 02:31:24;;;;;;;10.88;6.03;;;13.80;99.90;;;;;;5013452;28;20029;-75
2023/06/23 02:33:51;;;;;;;12.43;5.85;;;13.80;99.90;;;;;;5013822;28;20030;-75
2023/06/23 02:36:22;;;;;;;9.05;5.47;;;13.80;99.90;;;;;;5013178;28;20025;-74
2023/06/23 02:38:54;;;;;;;8.77;5.20;;;13.80;99.90;;;;;;5013525;28;20100;-74
2023/06/23 02:41:22;;;;;;;17.10;6.20;;;13.80;99.90;;;;;;5013690;28;20042;-74
2023/06/23 02:43:53;;;;;;;8.73;5.20;;;13.80;99.90;;;;;;5013396;28;20042;-73
2023/06/23 02:46:26;;;;;;;6.40;4.97;;;13.80;99.90;;;;;;5012949;28;20040;-73
2023/06/23 02:48:58;;;;;;;9.38;5.95;;;13.80;99.90;;;;;;5013079;28;20022;-74
2023/06/23 02:51:27;;;;;;;8.00;5.78;;;13.70;99.90;;;;;;5013197;28;20052;-74
2023/06/23 02:54:01;;;;;;;11.13;6.05;;;13.70;99.90;;;;;;5012855;28;20391;-74
2023/06/23 02:56:28;;;;;;;6.85;5.38;;;13.60;99.90;;;;;;5012861;28;20034;-72
2023/06/23 02:59:02;;;;;;;9.30;6.25;;;13.60;99.90;;;;;;5012578;28;20112;-74
2023/06/23 03:01:31;;;;;;;10.75;5.80;;;13.60;99.90;;;;;;5013003;28;20026;-74
2023/06/23 03:03:57;;;;;;;7.75;5.82;;;13.60;99.90;;;;;;5012953;28;20037;-74
2023/06/23 03:06:23;;;;;;;7.68;5.75;;;13.60;99.90;;;;;;5012810;28;20029;-73
2023/06/23 03:08:50;;;;;;;10.25;5.93;;;13.60;99.90;;;;;;5012594;28;20030;-72
2023/06/23 03:11:20;;;;;;;9.13;5.63;;;13.50;99.90;;;;;;5012856;28;20080;-72
2023/06/23 03:13:47;;;;;;;8.73;6.05;;;13.50;99.90;;;;;;5012868;28;20545;-72
2023/06/23 03:16:19;;;;;;;11.73;5.97;;;13.50;99.90;;;;;;5012356;28;20034;-74
2023/06/23 03:18:58;;;;;;;11.13;6.30;;;13.50;99.90;;;;;;5011729;28;20109;-72
2023/06/23 03:21:24;;;;;;;9.95;6.50;;;13.40;99.90;;;;;;5012950;28;20033;-75
2023/06/23 03:23:53;;;;;;;8.13;6.15;;;13.30;99.90;;;;;;5012455;28;20042;-73
2023/06/23 03:26:20;;;;;;;10.02;6.38;;;13.40;99.90;;;;;;5011653;28;20034;-73
2023/06/23 03:28:48;;;;;;;6.97;5.35;;;13.30;99.90;;;;;;5012286;28;20041;-73
2023/06/23 03:31:16;;;;;;;9.35;5.70;;;13.30;99.90;;;;;;5012561;28;20025;-74
2023/06/23 03:33:44;;;;;;;9.68;6.15;;;13.30;99.90;;;;;;5012662;28;20364;-74
2023/06/23 03:36:31;;;;;;;8.45;5.95;;;13.30;99.90;;;;;;5012164;28;20040;-73
2023/06/23 03:39:04;;;;;;;10.18;5.80;;;13.30;99.90;;;;;;5012345;28;20104;-74
2023/06/23 03:41:32;;;;;;;11.10;5.97;;;13.20;99.90;;;;;;5012093;28;20033;-74
2023/06/23 03:44:12;;;;;;;8.55;5.78;;;13.20;99.90;;;;;;5010053;28;20049;-75
2023/06/23 03:46:55;;;;;;;9.13;5.60;;;13.20;99.90;;;;;;5012209;28;20025;-74
2023/06/23 03:49:26;;;;;;;8.18;6.05;;;13.20;99.90;;;;;;5012239;28;20036;-73
2023/06/23 03:51:52;;;;;;;;;;;13.20;99.90;;;;;;5012708;28;20045;-73
2023/06/23 03:54:19;;;;;;;9.13;5.65;;;13.10;99.90;;;;;;5011247;28;20274;-74
2023/06/23 03:56:48;;;;;;;8.75;5.55;;;13.10;99.90;;;;;;5012124;28;20026;-72
2023/06/23 03:59:16;;;;;;;9.45;5.80;;;13.00;99.90;;;;;;5012375;28;20042;-72
2023/06/23 04:01:43;;;;;;;9.85;5.82;;;13.00;99.90;;;;;;5012100;28;20105;-74
2023/06/23 04:04:11;;;;;;;14.15;6.45;;;13.00;99.90;;;;;;5012614;28;20034;-73
2023/06/23 04:06:39;;;;;;;9.57;6.55;;;12.90;99.90;;;;;;5012458;28;20022;-75
2023/06/23 04:09:05;;;;;;;12.10;6.03;;;13.00;99.90;;;;;;5012521;28;20038;-73
2023/06/23 04:11:32;;;;;;;9.98;6.18;;;13.00;99.90;;;;;;5012187;28;20384;-74
2023/06/23 04:13:59;;;;;;;10.65;6.30;;;13.00;99.90;;;;;;5010584;28;20030;-73
2023/06/23 04:16:26;;;;;;;8.27;6.03;;;13.00;99.90;;;;;;5011615;28;20182;-74
2023/06/23 04:18:52;;;;;;;9.05;5.93;;;13.10;99.90;;;;;;5011873;28;20026;-73
2023/06/23 04:21:19;;;;;;;8.93;6.47;;;13.10;99.90;;;;;;5012010;28;20030;-74
2023/06/23 04:23:47;;;;;;;9.73;5.78;;;13.10;99.90;;;;;;5012212;28;20066;-74
2023/06/23 04:26:13;;;;;;;12.02;6.05;;;13.10;99.90;;;;;;5011471;28;20038;-74
2023/06/23 04:28:43;;;;;;;9.00;6.15;;;13.10;99.90;;;;;;5011438;28;20472;-73
2023/06/23 04:31:10;;;;;;;10.68;6.28;;;13.10;99.90;;;;;;5012412;28;20038;-73
2023/06/23 04:33:37;;;;;;;9.10;5.75;;;13.20;99.90;;;;;;5011699;28;20087;-74
2023/06/23 04:36:15;;;;;;;10.10;6.35;;;13.20;99.90;;;;;;5011645;28;20026;-73
2023/06/23 04:38:47;;;;;;;9.05;5.95;;;13.20;99.90;;;;;;5014460;28;20129;-73
2023/06/23 04:41:19;;;;;;;9.68;5.72;;;13.20;99.90;;;;;;5015348;28;20084;-73
2023/06/23 04:43:49;;;;;;;9.02;5.78;;;13.20;99.90;;;;;;5015200;28;20466;-73
2023/06/23 04:46:31;;;;;;;12.10;6.25;;;13.20;99.90;;;;;;5014835;28;20487;-73
2023/06/23 04:49:03;;;;;;;11.13;6.43;;;13.20;99.90;;;;;;5015508;28;20034;-73
2023/06/23 04:51:34;;;;;;;12.02;6.88;;;13.20;99.90;;;;;;5015619;28;20468;-73
2023/06/23 04:54:10;;;;;;;13.45;6.20;;;13.30;99.90;;;;;;5015445;28;20431;-73
2023/06/23 04:56:38;;;;;;;8.30;5.90;;;13.30;99.90;;;;;;5015627;28;20037;-73
2023/06/23 04:59:06;;;;;;;11.45;6.53;;;13.30;99.90;;;;;;5015897;28;20112;-74
2023/06/23 05:01:33;;;;;;;9.57;6.38;;;13.30;99.90;;;;;;5015771;28;20482;-72
2023/06/23 05:04:03;;;;;;;12.90;6.15;;;13.20;99.90;;;;;;5015470;28;20040;-74
2023/06/23 05:06:31;;;;;;;9.93;6.63;;;13.20;99.90;;;;;;5014863;28;20038;-71
2023/06/23 05:08:58;;;;;;;9.35;6.07;;;13.30;99.90;;;;;;5014536;28;20026;-73
2023/06/23 05:11:25;;;;;;;13.13;6.63;;;13.30;99.90;;;;;;5014908;28;20104;-73
2023/06/23 05:13:52;;;;;;;11.57;6.97;;;13.30;99.90;;;;;;5014803;28;20022;-73
2023/06/23 05:16:21;;;;;;;8.88;6.07;;;13.30;99.90;;;;;;5014911;28;20113;-72
2023/06/23 05:18:47;;;;;;;10.02;6.28;;;13.30;99.90;;;;;;5014700;28;20084;-73
2023/06/23 05:21:20;;;;;;;8.48;5.85;;;13.40;99.90;;;;;;5014813;28;20183;-74
2023/06/23 05:23:49;;;;;;;11.27;7.05;;;13.30;99.90;;;;;;5015151;28;20022;-75
2023/06/23 05:26:16;;;;;;;12.07;6.15;;;13.30;99.90;;;;;;5015022;28;20369;-75
2023/06/23 05:28:45;;;;;;;13.63;7.03;;;13.40;99.90;;;;;;5014648;28;20026;-75
2023/06/23 05:31:13;;;;;;;9.45;6.40;;;13.30;99.90;;;;;;4996900;28;20383;-74
2023/06/23 05:33:41;;;;;;;11.93;6.32;;;13.40;99.90;;;;;;5014868;28;20080;-73
2023/06/23 05:36:10;;;;;;;10.88;6.35;;;13.40;99.90;;;;;;5014310;28;20037;-75
2023/06/23 05:38:37;;;;;;;11.43;6.65;;;13.40;99.90;;;;;;4996758;28;20407;-74
2023/06/23 05:41:03;;;;;;;12.30;6.72;;;13.40;99.90;;;;;;5014446;28;20029;-74
2023/06/23 05:43:29;;;;;;;8.85;6.93;;;13.40;99.90;;;;;;5014804;28;20044;-75
2023/06/23 05:45:56;;;;;;;8.93;6.32;;;13.50;99.90;;;;;;5014392;28;20500;-73
2023/06/23 05:48:30;;;;;;;11.23;7.05;;;13.50;99.90;;;;;;4996169;28;20022;-73
2023/06/23 05:50:57;;;;;;;13.73;7.20;;;13.50;99.90;;;;;;5014643;28;20022;-73
2023/06/23 05:53:25;;;;;;;10.80;7.18;;;13.60;99.90;;;;;;5014605;28;20038;-74
2023/06/23 05:56:14;;;;;;;11.10;7.00;;;13.60;99.90;;;;;;4996617;28;20478;-75
2023/06/23 05:58:44;;;;;;;11.50;7.10;;;13.70;99.90;;;;;;5014116;28;20033;-74
2023/06/23 06:01:14;;;;;;;13.40;7.32;;;13.80;99.90;;;;;;5013822;28;20036;-74
2023/06/23 06:03:46;;;;;;;12.68;6.32;;;13.80;99.90;;;;;;4996243;28;20038;-75
2023/06/23 06:06:13;;;;;;;13.52;6.97;;;13.80;99.90;;;;;;5013550;28;20044;-74
2023/06/23 06:08:41;;;;;;;9.98;6.20;;;13.80;99.90;;;;;;5013801;28;20088;-75
2023/06/23 06:11:09;;;;;;;14.73;6.95;;;13.90;99.90;;;;;;5013950;28;20018;-74
2023/06/23 06:13:40;;;;;;;8.75;6.30;;;13.90;99.90;;;;;;5014178;28;20040;-75
2023/06/23 06:16:09;;;;;;;11.43;7.15;;;13.90;99.90;;;;;;4996218;28;20056;-74
2023/06/23 06:18:37;;;;;;;10.40;6.70;;;13.90;99.90;;;;;;5014172;28;20037;-74
2023/06/23 06:21:04;;;;;;;10.77;6.95;;;13.90;99.90;;;;;;5012447;28;20029;-74
2023/06/23 06:23:31;;;;;;;12.73;7.50;;;13.90;99.90;;;;;;5013719;28;20033;-74
2023/06/23 06:25:58;;;;;;;12.00;6.65;;;14.00;99.90;;;;;;5013488;28;20034;-74
2023/06/23 06:28:26;;;;;;;9.80;6.93;;;14.00;99.90;;;;;;5013664;28;20392;-72
2023/06/23 06:30:54;;;;;;;13.18;7.32;;;14.00;99.90;;;;;;4996292;28;20045;-73
2023/06/23 06:33:21;;;;;;;10.25;7.03;;;14.10;99.90;;;;;;5013316;28;20030;-72
2023/06/23 06:35:49;;;;;;;11.48;7.20;;;14.10;99.90;;;;;;5013213;28;20025;-72
2023/06/23 06:38:16;;;;;;;12.77;6.57;;;14.20;99.90;;;;;;5013142;28;20036;-73
2023/06/23 06:40:46;;;;;;;13.00;6.82;;;14.20;99.90;;;;;;4993482;28;20472;-73
2023/06/23 06:43:12;;;;;;;10.70;6.93;;;14.30;99.90;;;;;;5012192;28;20041;-73
2023/06/23 06:45:37;;;;;;;11.00;6.97;;;14.40;99.90;;;;;;5011835;28;20030;-75
2023/06/23 06:48:04;;;;;;;11.50;6.22;;;14.40;99.90;;;;;;5013733;28;20045;-73
2023/06/23 06:50:31;;;;;;;13.55;7.25;;;14.50;99.90;;;;;;5011586;28;20376;-75
2023/06/23 06:52:58;;;;;;;11.40;6.70;;;14.50;99.90;;;;;;5012872;28;20032;-72
2023/06/23 06:55:24;;;;;;;11.57;6.60;;;14.60;99.90;;;;;;5012727;28;20026;-73
2023/06/23 06:57:51;;;;;;;10.65;7.15;;;14.70;99.90;;;;;;5012576;28;20046;-72
2023/06/23 07:00:18;;;;;;;14.15;7.07;;;14.70;99.90;;;;;;5011310;28;20024;-72
2023/06/23 07:02:45;;;;;;;12.15;7.50;;;14.70;99.90;;;;;;5011891;28;20042;-75
2023/06/23 07:05:11;;;;;;;12.55;6.70;;;14.70;99.90;;;;;;5012219;28;20041;-74
2023/06/23 07:07:38;;;;;;;13.05;6.43;;;14.80;99.90;;;;;;5012182;28;20025;-74
2023/06/23 07:10:04;;;;;;;13.60;7.07;;;14.80;99.90;;;;;;5010844;28;20511;-75
2023/06/23 07:12:33;;;;;;;10.23;6.93;;;14.90;99.90;;;;;;5011308;28;20104;-74
2023/06/23 07:14:59;;;;;;;12.10;6.93;;;14.90;99.90;;;;;;5012241;28;20080;-73
2023/06/23 07:17:24;;;;;;;11.45;6.85;;;15.00;99.90;;;;;;5012339;28;20472;-75
2023/06/23 07:19:50;;;;;;;11.35;6.65;;;15.10;99.90;;;;;;5012552;28;20104;-74
2023/06/23 07:22:17;;;;;;;11.52;6.72;;;15.10;99.90;;;;;;5011105;28;20038;-73
2023/06/23 07:24:43;;;;;;;12.82;6.85;;;15.20;99.90;;;;;;5012145;28;20499;-73
2023/06/23 07:27:09;;;;;;;12.23;6.55;;;15.20;99.90;;;;;;5012399;28;20029;-74
2023/06/23 07:29:35;;;;;;;10.07;6.80;;;15.30;99.90;;;;;;5012414;28;20029;-74
2023/06/23 07:32:01;;;;;;;9.90;6.82;;;15.30;99.90;;;;;;4994598;28;20037;-74
2023/06/23 07:34:28;;;;;;;10.05;6.53;;;15.30;99.90;;;;;;5012435;28;20034;-75
2023/06/23 07:36:54;;;;;;;10.50;6.40;;;15.40;99.90;;;;;;5014701;28;20022;-75
2023/06/23 07:39:20;;;;;;;11.20;6.30;;;15.40;99.90;;;;;;4997331;28;20519;-75
2023/06/23 07:41:46;;;;;;;13.07;6.82;;;15.50;99.90;;;;;;5012460;28;20018;-73
2023/06/23 07:44:12;;;;;;;11.75;6.97;;;15.50;99.90;;;;;;5025125;28;20402;-73
2023/06/23 07:46:37;;;;;;;12.82;6.80;;;15.60;99.90;;;;;;5024032;28;20018;-75
2023/06/23 07:49:03;;;;;;;11.70;6.38;;;15.70;99.90;;;;;;5012604;28;20116;-74
2023/06/23 07:51:29;;;;;;;11.52;6.75;;;15.80;99.90;;;;;;5027097;28;20360;-74
2023/06/23 07:53:55;;;;;;;11.00;7.95;;;15.80;99.90;;;;;;5029536;28;20068;-75
2023/06/23 07:56:21;;;;;;;11.48;7.45;;;15.90;99.90;;;;;;5022854;28;20457;-75
2023/06/23 07:58:46;;;;;;;11.95;7.82;;;16.00;99.90;;;;;;4993278;28;20064;-72
2023/06/23 08:01:12;;;;;;;9.82;7.13;;;16.10;99.90;;;;;;4993445;28;20113;-73
2023/06/23 08:03:38;;;;;;;7.93;5.57;;;16.10;99.90;;;;;;4995589;28;20026;-71
2023/06/23 08:06:04;;;;;;;10.35;7.78;;;16.20;99.90;;;;;;5011702;28;20441;-75
2023/06/23 08:08:30;;;;;;;13.77;6.82;;;16.30;99.90;;;;;;5023155;28;20104;-74
2023/06/23 08:10:55;;;;;;;8.88;5.75;;;16.40;99.90;;;;;;4993127;28;20025;-73
2023/06/23 08:13:21;;;;;;;12.48;6.45;;;16.50;99.90;;;;;;5019894;28;20037;-74
2023/06/23 08:15:47;;;;;;;11.23;6.72;;;16.60;99.90;;;;;;5011174;28;20026;-73
2023/06/23 08:18:13;;;;;;;10.07;5.90;;;16.70;99.90;;;;;;5010391;28;20437;-74
2023/06/23 08:20:38;;;;;;;10.43;6.32;;;16.80;99.90;;;;;;5010079;28;20119;-74
2023/06/23 08:23:04;;;;;;;10.88;6.07;;;16.90;99.90;;;;;;5012708;28;20034;-74
2023/06/23 08:25:30;;;;;;;12.77;6.68;;;17.00;99.90;;;;;;4994085;28;20038;-72
2023/06/23 08:27:55;;;;;;;10.55;7.03;;;17.10;99.90;;;;;;5012235;28;20030;-73
2023/06/23 08:30:27;;;;;;;9.13;5.97;;;17.20;99.90;;;;;;5011717;28;20467;-74
2023/06/23 08:32:53;;;;;;;9.52;5.68;;;17.30;99.90;;;;;;5021869;28;20095;-74
2023/06/23 08:35:18;;;;;;;12.00;6.50;;;17.40;99.90;;;;;;5020614;28;20476;-73
2023/06/23 08:37:44;;;;;;;12.85;6.65;;;17.40;99.90;;;;;;5025339;28;20067;-72
2023/06/23 08:40:10;;;;;;;12.05;6.43;;;17.40;99.90;;;;;;5018793;28;20065;-73
2023/06/23 08:42:37;;;;;;;9.18;5.85;;;17.50;99.90;;;;;;4998506;28;20041;-73
2023/06/23 08:45:06;;;;;;;13.80;7.15;;;17.60;99.90;;;;;;5009951;28;20534;-73
2023/06/23 08:47:35;;;;;;;9.90;6.65;;;17.70;99.90;;;;;;5016411;28;20122;-73
2023/06/23 08:50:01;;;;;;;13.88;6.55;;;17.70;99.90;;;;;;5019710;28;20033;-75
2023/06/23 08:52:27;;;;;;;10.52;6.40;;;17.80;99.90;;;;;;5010529;28;20034;-75
2023/06/23 08:54:53;;;;;;;9.80;6.53;;;17.80;99.90;;;;;;5014427;28;20122;-73
2023/06/23 08:57:19;;;;;;;11.55;5.65;;;17.90;99.90;;;;;;5011707;28;20391;-74
2023/06/23 08:59:46;;;;;;;10.75;5.95;;;18.00;99.90;;;;;;5024022;28;20026;-73
2023/06/23 09:02:11;;;;;;;12.55;5.68;;;18.10;99.90;;;;;;5021742;28;20038;-72
2023/06/23 09:04:38;;;;;;;11.60;6.30;;;18.20;99.90;;;;;;5022399;28;20055;-73
2023/06/23 09:07:05;;;;;;;9.45;5.90;;;18.20;99.90;;;;;;5018837;28;20036;-72
2023/06/23 09:09:30;;;;;;;11.63;5.63;;;18.30;99.90;;;;;;5020438;28;20026;-72
2023/06/23 09:11:57;;;;;;;10.10;5.50;;;18.40;99.90;;;;;;5024433;28;20076;-72
2023/06/23 09:14:33;;;;;;;10.00;4.75;;;18.40;99.90;;;;;;5018009;28;20084;-74
2023/06/23 09:17:01;;;;;;;8.70;5.30;;;18.50;99.90;;;;;;5010840;28;20056;-73
2023/06/23 09:19:27;;;;;;;10.95;5.72;;;18.50;99.90;;;;;;5011928;28;20026;-73
2023/06/23 09:21:54;;;;;;;20.88;6.07;;;18.60;99.90;;;;;;5015385;28;20038;-72
2023/06/23 09:24:21;;;;;;;13.18;5.63;;;18.70;99.90;;;;;;5000553;28;20033;-74
2023/06/23 09:26:51;;;;;;;11.35;5.13;;;18.70;99.90;;;;;;5025740;28;20033;-74
2023/06/23 09:29:22;;;;;;;14.20;6.25;;;18.80;99.90;;;;;;5007106;28;20479;-74
2023/06/23 09:31:50;;;;;;;14.98;4.93;;;18.90;99.90;;;;;;5014203;28;20057;-73
2023/06/23 09:34:21;;;;;;;10.45;5.57;;;19.10;99.90;;;;;;5028679;28;20029;-72
2023/06/23 09:36:47;;;;;;;9.63;5.38;;;19.20;99.90;;;;;;5029483;28;20030;-73
2023/06/23 09:39:14;;;;;;;6.43;4.50;;;19.40;99.90;;;;;;5027787;28;20068;-72
2023/06/23 09:41:55;;;;;;;7.93;5.05;;;19.50;99.90;;;;;;5030861;28;20036;-73
2023/06/23 09:44:21;;;;;;;7.05;5.07;;;19.70;99.90;;;;;;5025529;28;20037;-73
2023/06/23 09:46:47;;;;;;;8.30;4.10;;;19.80;99.90;;;;;;5021063;28;20092;-73
2023/06/23 09:49:12;;;;;;;7.00;4.20;;;20.00;99.90;;;;;;5024062;28;20061;-71
2023/06/23 09:51:45;;;;;;;5.85;3.80;;;20.20;99.90;;;;;;5014738;28;20460;-74
2023/06/23 09:54:11;;;;;;;8.50;3.65;;;20.30;99.90;;;;;;5025817;28;20026;-73
2023/06/23 09:56:37;;;;;;;5.45;3.65;;;20.40;99.90;;;;;;5014186;28;20033;-72
2023/06/23 09:59:02;;;;;;;6.97;3.90;;;20.50;99.90;;;;;;5015701;28;20021;-73
2023/06/23 10:01:28;;;;;;;9.40;4.07;;;20.60;99.90;;;;;;5030164;28;20107;-72
2023/06/23 10:03:55;;;;;;;7.72;3.80;;;20.70;99.90;;;;;;5021678;28;20037;-73
2023/06/23 10:06:34;;;;;;;5.03;3.47;;;20.70;99.90;;;;;;5028127;28;20504;-71
2023/06/23 10:09:05;;;;;;;7.18;3.88;;;20.80;99.90;;;;;;5020845;28;20365;-73
2023/06/23 10:11:33;;;;;;;7.30;3.10;;;20.80;99.90;;;;;;5026864;28;20025;-74
2023/06/23 10:14:05;;;;;;;4.20;3.20;;;20.90;99.90;;;;;;5019902;28;20464;-73
2023/06/23 10:16:32;;;;;;;4.80;3.15;;;20.90;99.80;;;;;;5023571;28;20022;-74
2023/06/23 10:18:58;;;;;;;5.18;2.83;;;21.10;99.20;;;;;;5018205;28;20025;-74
2023/06/23 10:21:25;;;;;;;6.13;3.00;;;21.20;98.40;;;;;;5013240;28;20036;-73
2023/06/23 10:23:54;;;;;;;8.27;3.70;;;21.30;97.40;;;;;;5012860;28;20036;-73
2023/06/23 10:26:22;;;;;;;7.53;3.08;;;21.50;97.20;;;;;;5022409;28;20033;-73
2023/06/23 10:28:49;;;;;;;3.45;2.60;;;21.60;96.70;;;;;;5015395;28;20026;-72
2023/06/23 10:31:17;;;;;;;6.20;2.80;;;21.70;95.60;;;;;;5000269;28;20392;-73
2023/06/23 10:33:44;;;;;;;4.05;2.92;;;21.70;94.40;;;;;;5021911;28;20025;-72
2023/06/23 10:36:16;;;;;;;7.18;3.38;;;21.80;94.10;;;;;;5010371;28;20394;-73
2023/06/23 10:38:45;;;;;;;5.93;2.97;;;21.90;93.60;;;;;;5017893;28;20046;-72
2023/06/23 10:41:12;;;;;;;5.25;3.00;;;21.90;92.80;;;;;;5017764;28;20058;-73
2023/06/23 10:43:40;;;;;;;12.82;2.92;;;21.90;92.80;;;;;;5012001;28;20026;-73
2023/06/23 10:46:07;;;;;;;4.95;2.72;;;21.90;92.60;;;;;;5014094;28;20492;-73
2023/06/23 10:48:36;;;;;;;8.35;2.78;;;21.90;92.40;;;;;;5018660;28;20021;-72
2023/06/23 10:51:02;;;;;;;6.47;2.70;;;21.80;91.80;;;;;;5019381;28;20088;-74
2023/06/23 10:53:32;;;;;;;8.85;2.97;;;21.80;91.50;;;;;;5021841;28;20043;-71
2023/06/23 10:55:59;;;;;;;5.85;2.50;;;21.80;91.40;;;;;;5007651;28;20486;-72
2023/06/23 10:58:26;;;;;;;4.32;2.42;;;21.90;91.40;;;;;;5020493;28;20029;-73
2023/06/23 11:00:54;;;;;;;4.70;2.55;;;22.00;91.10;;;;;;5024146;28;20021;-73
2023/06/23 11:03:29;;;;;;;3.70;2.40;;;22.00;90.90;;;;;;5003615;28;20064;-73
2023/06/23 11:05:56;;;;;;;3.78;2.40;;;22.20;90.70;;;;;;5014790;28;20109;-72
2023/06/23 11:08:36;;;;;;;9.50;2.97;;;22.30;90.10;;;;;;5013260;28;20498;-74
2023/06/23 11:11:06;;;;;;;7.35;2.85;;;22.40;88.80;;;;;;5012185;28;20468;-73
2023/06/23 11:13:37;;;;;;;5.35;2.60;;;22.50;88.50;;;;;;5012576;28;20069;-73
2023/06/23 11:16:04;;;;;;;6.57;3.17;;;22.60;88.10;;;;;;4994385;28;20030;-73
2023/06/23 11:18:29;;;;;;;4.50;2.80;;;22.80;88.00;;;;;;5011707;28;20050;-73
2023/06/23 11:21:13;;;;;;;3.80;2.22;;;23.00;87.60;;;;;;5012348;28;20069;-74
2023/06/23 11:24:15;;;;;;;5.97;2.72;;;23.10;86.40;;;;;;5009908;28;20034;-74
2023/06/23 11:26:52;;;;;;;6.22;3.38;;;23.20;86.10;;;;;;4992732;28;20057;-72
2023/06/23 11:29:22;;;;;;;4.97;2.72;;;23.40;85.10;;;;;;4992350;28;20428;-74
2023/06/23 11:32:03;;;;;;;3.65;2.80;;;23.50;84.10;;;;;;4992368;28;20424;-72
2023/06/23 11:34:30;;;;;;;4.70;3.08;;;23.70;83.50;;;;;;4991983;28;20030;-74
2023/06/23 11:37:00;;;;;;;4.97;3.45;;;23.80;83.20;;;;;;4974612;28;20076;-73
2023/06/23 11:39:26;;;;;;;6.53;3.08;;;23.90;83.30;;;;;;4987415;28;20382;-73
2023/06/23 11:41:52;;;;;;;3.33;2.60;;;24.10;83.00;;;;;;4974417;28;20037;-74
2023/06/23 11:44:21;;;;;;;3.95;2.58;;;24.40;82.50;;;;;;4992380;28;20031;-74
2023/06/23 11:46:52;;;;;;;4.05;2.80;;;24.60;81.30;;;;;;4991731;28;20039;-73
2023/06/23 11:49:17;;;;;;;9.90;2.90;;;24.90;80.60;;;;;;4991536;28;20416;-74
2023/06/23 11:51:44;;;;;;;3.47;2.85;;;25.00;79.20;;;;;;4992260;28;20026;-74
2023/06/23 11:54:11;;;;;;;4.03;2.83;;;25.10;78.70;;;;;;4991882;28;20045;-72
2023/06/23 11:56:41;;;;;;;2.95;2.65;;;25.40;78.40;;;;;;4992805;28;20030;-73
2023/06/23 11:59:10;;;;;;;4.82;2.97;;;25.60;76.90;;;;;;4992270;28;20376;-73
2023/06/23 12:01:36;;;;;;;5.27;2.60;;;25.70;75.50;;;;;;4991019;28;20485;-73
2023/06/23 12:04:05;;;;;;;3.33;2.80;;;25.60;73.00;;;;;;4992030;28;20038;-73
2023/06/23 12:06:35;;;;;;;3.42;2.90;;;25.30;72.70;;;;;;4992394;28;20027;-72
2023/06/23 12:09:02;;;;;;;;;;;25.30;72.60;;;;;;4992547;28;20033;-73
2023/06/23 12:11:29;;;;;;;5.22;2.47;;;25.20;73.00;;;;;;5007264;28;19988;-73
2023/06/23 12:13:57;;;;;;;3.38;2.58;;;25.20;72.00;;;;;;4992018;28;20037;-73
2023/06/23 12:16:22;;;;;;;4.28;3.20;;;25.10;72.00;;;;;;4991655;28;20031;-71
2023/06/23 12:18:50;;;;;;;5.25;2.95;;;25.10;71.70;;;;;;4991327;28;20069;-75
2023/06/23 12:21:20;;;;;;;6.65;2.78;;;25.10;71.70;;;;;;4991723;28;20065;-73
2023/06/23 12:23:46;;;;;;;4.32;2.90;;;25.20;71.80;;;;;;4991706;28;20189;-73
2023/06/23 12:26:14;;;;;;;4.05;3.15;;;25.50;72.00;;;;;;4991485;28;20481;-72
2023/06/23 12:28:40;;;;;;;3.80;2.92;;;25.60;71.70;;;;;;4991373;28;20504;-71
2023/06/23 12:31:06;;;;;;;4.25;2.78;;;25.60;71.80;;;;;;4991053;28;20035;-74
2023/06/23 12:33:35;;;;;;;2.95;2.35;;;25.70;71.80;;;;;;4990522;28;20030;-72
2023/06/23 12:36:03;;;;;;;3.40;2.65;;;25.80;71.20;;;;;;4991734;28;20026;-73
2023/06/23 12:38:31;;;;;;;3.22;2.47;;;25.80;70.00;;;;;;4994736;28;20054;-77
2023/06/23 12:41:16;;;;;;;3.92;2.90;;;25.70;69.50;;;;;;4993498;28;20026;-74
2023/06/23 12:43:42;;;;;;;5.22;2.95;;;25.50;69.60;;;;;;5011313;28;20120;-74
2023/06/23 12:46:11;;;;;;;3.35;2.80;;;25.40;70.20;;;;;;4993654;28;20128;-74
2023/06/23 12:48:40;;;;;;;4.05;2.78;;;25.20;70.40;;;;;;5011797;28;20041;-73
2023/06/23 12:51:06;;;;;;;4.78;2.70;;;25.10;70.60;;;;;;5010814;28;20408;-74